createdAt,value
2022-10-10T00:02:31.350Z,5.05
2022-10-10T00:05:06.191Z,5.65
2022-10-10T00:07:41.141Z,4.40
2022-10-10T00:10:09.251Z,4.38
2022-10-10T00:12:42.261Z,7.00
2022-10-10T00:15:24.534Z,3.58
2022-10-10T00:18:05.778Z,5.68
2022-10-10T00:20:56.762Z,5.15
2022-10-10T00:23:30.494Z,5.22
2022-10-10T00:26:08.723Z,6.43
2022-10-10T00:28:41.067Z,7.40
2022-10-10T00:31:19.692Z,6.03
2022-10-10T00:33:55.493Z,5.53
2022-10-10T00:36:24.603Z,10.05
2022-10-10T00:38:59.662Z,6.10
2022-10-10T00:41:32.803Z,4.75
2022-10-10T00:44:27.453Z,7.10
2022-10-10T00:46:55.334Z,8.80
2022-10-10T00:49:33.178Z,8.77
2022-10-10T00:52:13.165Z,7.55
2022-10-10T00:54:43.677Z,10.32
2022-10-10T00:57:19.307Z,8.45
2022-10-10T00:59:46.724Z,9.43
2022-10-10T01:02:27.056Z,9.80
2022-10-10T01:05:02.266Z,8.82
2022-10-10T01:07:34.750Z,10.10
2022-10-10T01:10:15.137Z,10.52
2022-10-10T01:13:29.780Z,9.45
2022-10-10T01:16:32.598Z,11.73
2022-10-10T01:19:28.295Z,11.82
2022-10-10T01:22:23.308Z,9.50
2022-10-10T01:25:26.010Z,11.40
2022-10-10T01:28:31.295Z,12.88
2022-10-10T01:31:10.888Z,12.15
2022-10-10T01:34:02.185Z,14.82
2022-10-10T01:36:43.172Z,13.95
2022-10-10T01:42:08.070Z,15.02
2022-10-10T01:44:57.100Z,18.38
2022-10-10T01:47:25.861Z,16.95
2022-10-10T01:50:05.756Z,15.60
2022-10-10T01:52:58.226Z,17.33
2022-10-10T01:55:54.945Z,17.98
2022-10-10T01:58:53.802Z,16.05
2022-10-10T02:01:39.267Z,17.38
2022-10-10T02:04:33.798Z,18.83
2022-10-10T02:07:17.855Z,16.48
2022-10-10T02:09:57.481Z,19.10
2022-10-10T02:12:49.136Z,19.08
2022-10-10T02:15:25.221Z,18.65
2022-10-10T02:18:00.196Z,19.13
2022-10-10T02:20:31.298Z,19.13
2022-10-10T02:23:10.258Z,17.75
2022-10-10T02:25:45.530Z,20.83
2022-10-10T02:28:15.377Z,20.80
2022-10-10T02:30:55.160Z,20.80
2022-10-10T02:33:47.962Z,19.08
2022-10-10T02:36:31.121Z,18.65
2022-10-10T02:39:06.080Z,20.40
2022-10-10T02:41:37.741Z,19.63
2022-10-10T02:44:11.185Z,24.17
2022-10-10T02:46:38.007Z,22.45
2022-10-10T02:49:14.689Z,22.90
2022-10-10T02:51:52.354Z,22.75
2022-10-10T02:54:30.332Z,22.25
2022-10-10T02:57:16.601Z,22.13
2022-10-10T02:59:48.121Z,21.63
2022-10-10T03:02:24.418Z,21.95
2022-10-10T03:04:59.079Z,22.17
2022-10-10T03:07:33.647Z,20.45
2022-10-10T03:10:09.969Z,21.02
2022-10-10T03:12:51.280Z,24.00
2022-10-10T03:15:30.891Z,23.85
2022-10-10T03:18:08.271Z,23.42
2022-10-10T03:21:00.005Z,25.70
2022-10-10T03:23:33.147Z,24.70
2022-10-10T03:26:11.905Z,25.73
2022-10-10T03:28:44.899Z,26.83
2022-10-10T03:31:20.608Z,29.50
2022-10-10T03:34:05.422Z,33.92
2022-10-10T03:36:35.141Z,32.72
2022-10-10T03:39:10.466Z,36.40
2022-10-10T03:41:53.279Z,35.75
2022-10-10T03:44:32.386Z,36.30
2022-10-10T03:47:13.511Z,36.38
2022-10-10T03:49:57.851Z,39.65
2022-10-10T03:52:33.361Z,37.95
2022-10-10T03:55:08.835Z,36.17
2022-10-10T03:57:44.375Z,39.03
2022-10-10T04:00:21.768Z,41.07
2022-10-10T04:03:00.140Z,39.00
2022-10-10T04:05:41.167Z,38.53
2022-10-10T04:08:21.722Z,40.17
2022-10-10T04:11:00.578Z,31.73
2022-10-10T04:13:35.912Z,37.45
2022-10-10T04:16:16.794Z,36.40
2022-10-10T04:18:55.606Z,35.67
2022-10-10T04:21:30.705Z,39.38
2022-10-10T04:24:20.395Z,38.38
2022-10-10T04:26:58.305Z,38.63
2022-10-10T04:29:36.361Z,35.70
2022-10-10T04:32:14.811Z,43.30
2022-10-10T04:34:55.727Z,44.75
2022-10-10T04:37:40.754Z,44.92
2022-10-10T04:40:25.507Z,56.72
2022-10-10T04:43:06.463Z,55.13
2022-10-10T04:45:51.456Z,50.00
2022-10-10T04:48:24.056Z,57.28
2022-10-10T04:50:59.249Z,53.90
2022-10-10T04:53:34.622Z,54.40
2022-10-10T04:56:12.123Z,53.13
2022-10-10T04:58:50.289Z,49.63
2022-10-10T05:01:25.899Z,47.03
2022-10-10T05:04:00.990Z,51.35
2022-10-10T05:06:42.081Z,50.70
2022-10-10T05:09:11.883Z,48.05
2022-10-10T05:11:53.362Z,56.65
2022-10-10T05:14:36.376Z,39.60
2022-10-10T05:17:11.683Z,49.17
2022-10-10T05:19:47.626Z,51.67
2022-10-10T05:22:27.138Z,55.75
2022-10-10T05:25:06.744Z,54.78
2022-10-10T05:27:46.114Z,55.30
2022-10-10T05:30:28.527Z,52.72
2022-10-10T05:33:04.068Z,50.30
2022-10-10T05:35:46.766Z,55.50
2022-10-10T05:38:21.928Z,57.83
2022-10-10T05:40:54.606Z,54.17
2022-10-10T05:43:35.138Z,55.60
2022-10-10T05:46:22.115Z,54.97
2022-10-10T05:48:57.634Z,51.47
2022-10-10T05:51:32.703Z,52.85
2022-10-10T05:54:14.628Z,60.55
2022-10-10T05:56:44.663Z,50.30
2022-10-10T05:59:22.160Z,60.85
2022-10-10T06:02:00.137Z,57.28
2022-10-10T06:04:35.100Z,55.22
2022-10-10T06:07:18.946Z,56.17
2022-10-10T06:12:37.174Z,53.33
2022-10-10T06:15:12.432Z,53.65
2022-10-10T06:17:58.949Z,50.90
2022-10-10T06:20:38.945Z,46.78
2022-10-10T06:23:10.202Z,48.33
2022-10-10T06:25:52.046Z,54.13
2022-10-10T06:28:28.980Z,50.90
2022-10-10T06:31:07.989Z,53.42
2022-10-10T06:33:53.320Z,47.15
2022-10-10T06:36:31.400Z,45.10
2022-10-10T06:39:25.448Z,36.90
2022-10-10T06:42:03.246Z,32.42
2022-10-10T06:44:50.300Z,28.35
2022-10-10T06:47:19.250Z,15.68
2022-10-10T06:49:54.398Z,16.60
2022-10-10T06:52:32.069Z,13.35
2022-10-10T06:55:06.692Z,15.52
2022-10-10T06:57:44.597Z,12.32
2022-10-10T07:00:20.998Z,10.40
2022-10-10T07:02:54.269Z,9.32
2022-10-10T07:05:41.675Z,10.35
2022-10-10T07:08:12.334Z,13.05
2022-10-10T07:10:41.854Z,8.25
2022-10-10T07:13:18.048Z,7.47
2022-10-10T07:15:51.901Z,7.15
2022-10-10T07:18:24.205Z,8.82
2022-10-10T07:21:05.978Z,9.82
2022-10-10T07:23:47.806Z,9.85
2022-10-10T07:26:16.503Z,7.55
2022-10-10T07:28:44.223Z,8.38
2022-10-10T07:31:28.111Z,9.50
2022-10-10T07:34:10.439Z,8.40
2022-10-10T07:36:43.681Z,8.85
2022-10-10T07:39:17.128Z,7.90
2022-10-10T07:41:54.197Z,7.70
2022-10-10T07:44:23.677Z,7.90
2022-10-10T07:47:18.048Z,7.22
2022-10-10T07:49:46.061Z,5.65
2022-10-10T07:52:21.264Z,9.07
2022-10-10T07:54:50.463Z,9.45
2022-10-10T08:00:17.009Z,6.68
2022-10-10T08:02:54.433Z,8.68
2022-10-10T08:05:29.934Z,9.82
2022-10-10T08:08:05.189Z,8.75
2022-10-10T08:10:40.184Z,6.38
2022-10-10T08:13:21.445Z,13.35
2022-10-10T08:16:02.339Z,3.55
2022-10-10T08:18:48.475Z,3.22
2022-10-10T08:21:27.097Z,5.60
2022-10-10T08:24:10.103Z,6.55
2022-10-10T08:26:53.516Z,3.55
2022-10-10T08:29:26.045Z,4.38
2022-10-10T08:32:20.741Z,7.43
2022-10-10T08:35:04.327Z,4.15
2022-10-10T08:37:39.655Z,9.95
2022-10-10T08:40:19.127Z,4.50
2022-10-10T08:43:05.177Z,10.38
2022-10-10T08:45:42.892Z,4.60
2022-10-10T08:48:25.950Z,5.65
2022-10-10T08:51:13.467Z,6.77
2022-10-10T08:53:48.959Z,5.53
2022-10-10T08:56:32.863Z,4.22
2022-10-10T08:59:19.346Z,4.65
2022-10-10T09:02:17.893Z,10.90
2022-10-10T09:05:31.047Z,6.03
2022-10-10T09:08:12.649Z,4.55
2022-10-10T09:10:57.210Z,5.03
2022-10-10T09:13:33.640Z,4.22
2022-10-10T09:16:26.264Z,6.20
2022-10-10T09:19:42.479Z,4.80
2022-10-10T09:22:33.895Z,5.68
2022-10-10T09:25:40.894Z,6.23
2022-10-10T09:28:41.584Z,6.03
2022-10-10T09:31:34.913Z,6.82
2022-10-10T09:34:37.632Z,6.18
2022-10-10T09:37:46.355Z,6.88
2022-10-10T09:40:24.405Z,6.43
2022-10-10T09:43:17.281Z,8.68
2022-10-10T09:46:01.751Z,4.72
2022-10-10T09:49:05.731Z,5.72
2022-10-10T09:51:43.919Z,6.50
2022-10-10T09:54:20.557Z,5.88
2022-10-10T09:57:00.689Z,6.68
2022-10-10T09:59:45.313Z,7.28
2022-10-10T10:02:32.484Z,7.57
2022-10-10T10:05:54.413Z,9.45
2022-10-10T10:09:06.388Z,7.28
2022-10-10T10:14:51.253Z,3.35
2022-10-10T10:17:29.723Z,3.88
2022-10-10T10:20:48.067Z,4.30
2022-10-10T10:23:54.329Z,3.60
2022-10-10T10:26:52.940Z,3.88
2022-10-10T10:29:41.394Z,6.07
2022-10-10T10:33:06.891Z,5.20
2022-10-10T10:36:18.160Z,3.08
2022-10-10T10:39:17.753Z,3.40
2022-10-10T10:42:34.206Z,6.40
2022-10-10T10:45:30.073Z,4.32
2022-10-10T10:48:39.207Z,2.70
2022-10-10T10:51:46.184Z,3.70
2022-10-10T10:54:53.022Z,5.13
2022-10-10T10:58:48.363Z,3.30
2022-10-10T11:01:57.664Z,3.72
2022-10-10T11:05:21.053Z,7.05
2022-10-10T11:08:29.711Z,3.13
2022-10-10T11:11:24.849Z,7.07
2022-10-10T11:14:34.907Z,3.40
2022-10-10T11:17:39.170Z,5.68
2022-10-10T11:20:36.080Z,2.10
2022-10-10T11:26:30.993Z,3.05
2022-10-10T11:29:24.588Z,3.65
2022-10-10T11:32:06.812Z,5.20
2022-10-10T11:38:29.833Z,5.38
2022-10-10T11:44:36.229Z,3.72
2022-10-10T11:47:39.598Z,10.25
2022-10-10T11:50:42.193Z,3.75
2022-10-10T11:53:41.916Z,4.85
2022-10-10T11:56:38.096Z,6.50
2022-10-10T11:59:19.947Z,8.38
2022-10-10T12:02:04.122Z,3.13
2022-10-10T12:04:37.695Z,5.70
2022-10-10T12:07:36.184Z,5.07
2022-10-10T12:10:30.559Z,4.82
2022-10-10T12:13:20.956Z,4.63
2022-10-10T12:16:02.148Z,10.25
2022-10-10T12:19:00.217Z,3.10
2022-10-10T12:22:05.309Z,4.65
2022-10-10T12:25:41.044Z,3.47
2022-10-10T12:28:30.843Z,6.97
2022-10-10T12:31:19.769Z,6.85
2022-10-10T12:34:21.777Z,4.00
2022-10-10T12:40:40.316Z,3.80
2022-10-10T12:43:30.168Z,19.45
2022-10-10T12:46:30.934Z,7.50
2022-10-10T12:49:40.033Z,2.08
2022-10-10T12:52:53.667Z,6.13
2022-10-10T12:55:34.539Z,3.42
2022-10-10T12:58:28.146Z,3.25
2022-10-10T13:01:34.102Z,2.22
2022-10-10T13:04:09.971Z,5.93
2022-10-10T13:06:52.256Z,14.25
2022-10-10T13:09:41.250Z,3.47
2022-10-10T13:12:36.843Z,7.80
2022-10-10T13:15:22.669Z,9.93
2022-10-10T13:18:19.191Z,7.32
2022-10-10T13:21:02.321Z,5.20
2022-10-10T13:26:59.425Z,7.60
2022-10-10T13:29:41.221Z,14.05
2022-10-10T13:32:45.663Z,24.23
2022-10-10T13:35:30.052Z,19.65
2022-10-10T13:38:17.940Z,21.15
2022-10-10T13:41:14.157Z,9.13
2022-10-10T13:43:47.278Z,6.72
2022-10-10T13:46:41.249Z,4.18
2022-10-10T13:49:32.368Z,5.47
2022-10-10T13:52:28.411Z,5.68
2022-10-10T13:55:37.131Z,2.40
2022-10-10T14:01:07.373Z,5.32
2022-10-10T14:03:52.992Z,4.03
2022-10-10T14:06:29.444Z,7.68
2022-10-10T14:09:17.780Z,10.95
2022-10-10T14:11:56.740Z,11.55
2022-10-10T14:14:53.981Z,5.18
2022-10-10T14:17:35.234Z,7.47
2022-10-10T14:20:23.738Z,2.70
2022-10-10T14:23:22.158Z,10.77
2022-10-10T14:26:00.280Z,7.10
2022-10-10T14:28:35.957Z,4.40
2022-10-10T14:31:20.573Z,6.63
2022-10-10T14:33:59.572Z,5.10
2022-10-10T14:36:42.503Z,2.45
2022-10-10T14:39:19.271Z,9.63
2022-10-10T14:41:56.551Z,9.38
2022-10-10T14:44:37.921Z,9.57
2022-10-10T14:47:18.993Z,6.18
2022-10-10T14:50:05.760Z,7.28
2022-10-10T14:52:46.278Z,7.65
2022-10-10T14:55:32.842Z,10.50
2022-10-10T14:58:14.473Z,11.55
2022-10-10T15:01:06.616Z,12.60
2022-10-10T15:03:47.793Z,12.40
2022-10-10T15:06:32.379Z,11.38
2022-10-10T15:09:26.437Z,15.70
2022-10-10T15:12:06.349Z,6.50
2022-10-10T15:14:36.465Z,7.20
2022-10-10T15:17:11.443Z,9.18
2022-10-10T15:19:46.121Z,15.55
2022-10-10T15:22:29.290Z,12.30
2022-10-10T15:25:08.946Z,7.22
2022-10-10T15:27:44.892Z,11.98
2022-10-10T15:30:23.627Z,13.13
2022-10-10T15:32:59.445Z,5.60
2022-10-10T15:35:56.586Z,16.88
2022-10-10T15:38:33.356Z,20.90
2022-10-10T15:41:21.728Z,19.20
2022-10-10T15:43:55.639Z,20.70
2022-10-10T15:46:34.037Z,34.17
2022-10-10T15:49:16.719Z,20.42
2022-10-10T15:51:47.819Z,19.65
2022-10-10T15:54:23.372Z,19.10
2022-10-10T15:57:05.665Z,20.10
2022-10-10T15:59:43.514Z,20.92
2022-10-10T16:02:17.061Z,18.20
2022-10-10T16:05:02.671Z,15.77
2022-10-10T16:07:47.939Z,22.05
2022-10-10T16:10:15.323Z,25.77
2022-10-10T16:15:45.188Z,22.58
2022-10-10T16:18:14.849Z,19.15
2022-10-10T16:20:50.527Z,29.70
2022-10-10T16:23:22.734Z,24.92
2022-10-10T16:26:19.402Z,26.90
2022-10-10T16:29:02.399Z,30.23
2022-10-10T16:31:33.049Z,33.55
2022-10-10T16:34:06.362Z,25.52
2022-10-10T16:37:01.059Z,28.50
2022-10-10T16:39:40.134Z,29.38
2022-10-10T16:42:07.659Z,30.63
2022-10-10T16:44:37.316Z,36.10
2022-10-10T16:47:15.322Z,39.17
2022-10-10T16:49:43.111Z,32.03
2022-10-10T16:52:18.819Z,45.88
2022-10-10T16:54:52.023Z,36.83
2022-10-10T16:57:22.171Z,34.90
2022-10-10T16:59:56.525Z,38.65
2022-10-10T17:02:45.178Z,31.60
2022-10-10T17:05:15.015Z,42.53
2022-10-10T17:07:45.616Z,39.47
2022-10-10T17:10:12.632Z,36.83
2022-10-10T17:12:54.076Z,32.65
2022-10-10T17:15:25.940Z,40.22
2022-10-10T17:18:09.744Z,34.17
2022-10-10T17:20:47.101Z,45.05
2022-10-10T17:23:22.578Z,35.55
2022-10-10T17:26:00.418Z,44.33
2022-10-10T17:28:37.187Z,32.22
2022-10-10T17:31:15.569Z,37.40
2022-10-10T17:33:53.886Z,43.35
2022-10-10T17:36:36.511Z,37.78
2022-10-10T17:39:14.876Z,41.20
2022-10-10T17:41:57.672Z,48.88
2022-10-10T17:44:49.597Z,63.45
2022-10-10T17:47:33.930Z,61.50
2022-10-10T17:50:31.436Z,62.25
2022-10-10T17:53:06.884Z,66.47
2022-10-10T17:55:45.697Z,60.97
2022-10-10T17:58:25.662Z,58.10
2022-10-10T18:01:05.329Z,58.55
2022-10-10T18:03:43.838Z,53.65
2022-10-10T18:06:14.523Z,56.13
2022-10-10T18:08:57.491Z,65.03
2022-10-10T18:11:38.514Z,58.60
2022-10-10T18:14:17.362Z,50.40
2022-10-10T18:17:02.296Z,42.20
2022-10-10T18:19:34.917Z,47.97
2022-10-10T18:22:14.979Z,40.80
2022-10-10T18:24:50.573Z,36.40
2022-10-10T18:27:28.512Z,32.30
2022-10-10T18:30:07.133Z,39.45
2022-10-10T18:32:44.890Z,35.55
2022-10-10T18:35:25.975Z,44.35
2022-10-10T18:38:08.096Z,32.25
2022-10-10T18:40:47.180Z,32.22
2022-10-10T18:43:30.066Z,29.92
2022-10-10T18:46:10.800Z,25.92
2022-10-10T18:48:44.343Z,22.85
2022-10-10T18:51:45.979Z,27.60
2022-10-10T18:54:21.247Z,28.10
2022-10-10T18:57:10.766Z,33.80
2022-10-10T18:59:50.295Z,28.58
2022-10-10T19:02:21.556Z,31.75
2022-10-10T19:04:58.984Z,30.55
2022-10-10T19:07:41.452Z,35.97
2022-10-10T19:10:27.047Z,31.92
2022-10-10T19:13:02.375Z,36.47
2022-10-10T19:15:45.502Z,36.58
2022-10-10T19:18:25.770Z,34.60
2022-10-10T19:21:13.312Z,30.15
2022-10-10T19:23:58.289Z,30.88
2022-10-10T19:26:43.569Z,32.60
2022-10-10T19:29:25.569Z,30.35
2022-10-10T19:31:59.150Z,48.33
2022-10-10T19:34:32.134Z,42.05
2022-10-10T19:39:54.868Z,32.95
2022-10-10T19:42:40.935Z,30.52
2022-10-10T19:45:10.958Z,25.60
2022-10-10T19:47:56.162Z,25.38
2022-10-10T19:50:33.222Z,25.35
2022-10-10T19:53:11.987Z,29.05
2022-10-10T19:56:05.697Z,28.58
2022-10-10T19:58:37.409Z,24.60
2022-10-10T20:01:28.889Z,34.60
2022-10-10T20:04:04.019Z,31.20
2022-10-10T20:06:53.761Z,32.63
2022-10-10T20:09:20.718Z,31.98
2022-10-10T20:11:52.585Z,30.38
2022-10-10T20:14:25.344Z,32.67
2022-10-10T20:16:53.879Z,32.00
2022-10-10T20:19:29.094Z,35.95
2022-10-10T20:22:04.551Z,30.02
2022-10-10T20:24:47.358Z,38.90
2022-10-10T20:27:21.281Z,31.08
2022-10-10T20:30:06.361Z,31.00
2022-10-10T20:32:39.175Z,28.80
2022-10-10T20:35:20.347Z,28.05
2022-10-10T20:37:58.499Z,31.85
2022-10-10T20:40:37.950Z,29.38
2022-10-10T20:43:16.182Z,32.33
2022-10-10T20:45:59.012Z,33.92
2022-10-10T20:48:33.583Z,34.35
2022-10-10T20:51:15.264Z,34.75
2022-10-10T20:53:45.125Z,32.80
2022-10-10T20:56:19.205Z,46.35
2022-10-10T20:58:51.707Z,44.47
2022-10-10T21:01:30.313Z,42.17
2022-10-10T21:04:14.199Z,48.35
2022-10-10T21:06:48.882Z,35.47
2022-10-10T21:09:31.065Z,37.50
2022-10-10T21:12:00.703Z,38.20
2022-10-10T21:14:43.289Z,38.30
2022-10-10T21:17:16.005Z,38.58
2022-10-10T21:19:56.706Z,37.83
2022-10-10T21:22:39.339Z,38.88
2022-10-10T21:25:14.846Z,38.72
2022-10-10T21:27:44.567Z,39.20
2022-10-10T21:30:24.669Z,38.10
2022-10-10T21:33:14.828Z,35.25
2022-10-10T21:35:52.975Z,36.78
2022-10-10T21:38:31.392Z,36.08
2022-10-10T21:41:22.156Z,38.00
2022-10-10T21:44:05.054Z,34.13
2022-10-10T21:46:40.374Z,42.05
2022-10-10T21:49:27.218Z,38.13
2022-10-10T21:52:09.071Z,37.83
2022-10-10T21:54:41.433Z,37.65
2022-10-10T21:57:30.363Z,37.28
2022-10-10T22:00:19.139Z,39.17
2022-10-10T22:02:58.110Z,36.53
2022-10-10T22:05:42.937Z,35.97
2022-10-10T22:08:23.373Z,39.88
2022-10-10T22:10:59.768Z,38.75
2022-10-10T22:13:42.233Z,36.25
2022-10-10T22:16:15.593Z,33.37
2022-10-10T22:18:57.468Z,35.15
2022-10-10T22:21:32.218Z,30.95
2022-10-10T22:24:10.148Z,39.08
2022-10-10T22:26:48.403Z,34.20
2022-10-10T22:29:22.858Z,34.85
2022-10-10T22:32:04.807Z,36.33
2022-10-10T22:34:50.634Z,35.40
2022-10-10T22:37:22.940Z,36.28
2022-10-10T22:39:57.401Z,35.20
2022-10-10T22:42:29.927Z,34.45
2022-10-10T22:45:02.212Z,34.33
2022-10-10T22:47:34.757Z,34.40
2022-10-10T22:50:10.910Z,33.80
2022-10-10T22:52:57.712Z,31.13
2022-10-10T22:55:45.294Z,34.20
2022-10-10T22:58:36.324Z,34.75
2022-10-10T23:01:33.202Z,35.17
2022-10-10T23:04:17.828Z,34.88
2022-10-10T23:06:55.255Z,33.90
2022-10-10T23:09:36.797Z,39.03
2022-10-10T23:12:08.366Z,39.97
2022-10-10T23:14:50.411Z,40.03
2022-10-10T23:17:23.606Z,36.55
2022-10-10T23:20:12.143Z,38.55
2022-10-10T23:25:49.991Z,35.58
2022-10-10T23:28:25.231Z,35.47
2022-10-10T23:31:17.763Z,36.78
2022-10-10T23:33:50.366Z,39.85
2022-10-10T23:36:20.481Z,41.55
2022-10-10T23:38:51.111Z,41.75
2022-10-10T23:41:23.044Z,42.08
2022-10-10T23:44:05.229Z,43.70
2022-10-10T23:46:51.598Z,44.20
2022-10-10T23:49:23.803Z,40.72
2022-10-10T23:52:02.614Z,38.45
2022-10-10T23:54:34.503Z,40.28
2022-10-10T23:57:10.360Z,40.35
2022-10-10T23:59:49.126Z,35.45
